sensor_id;sensor_type;location;lat;lon;timestamp;P1;durP1;ratioP1;P2;durP2;ratioP2
249;SDS011;109;19.806;-70.704;2023-12-04T00:00:18;12.50;;;2.73;;
249;SDS011;109;19.806;-70.704;2023-12-04T00:02:44;17.53;;;3.07;;
249;SDS011;109;19.806;-70.704;2023-12-04T00:05:11;14.40;;;2.80;;
249;SDS011;109;19.806;-70.704;2023-12-04T00:07:37;17.33;;;2.77;;
249;SDS011;109;19.806;-70.704;2023-12-04T00:10:04;15.80;;;3.87;;
249;SDS011;109;19.806;-70.704;2023-12-04T00:12:31;30.90;;;3.57;;
249;SDS011;109;19.806;-70.704;2023-12-04T00:14:57;15.77;;;3.87;;
249;SDS011;109;19.806;-70.704;2023-12-04T00:17:24;8.63;;;2.30;;
249;SDS011;109;19.806;-70.704;2023-12-04T00:19:50;13.57;;;3.93;;
249;SDS011;109;19.806;-70.704;2023-12-04T00:22:17;13.63;;;6.10;;
249;SDS011;109;19.806;-70.704;2023-12-04T00:24:43;20.53;;;4.30;;
249;SDS011;109;19.806;-70.704;2023-12-04T00:27:10;13.10;;;3.03;;
249;SDS011;109;19.806;-70.704;2023-12-04T00:29:36;14.53;;;3.67;;
249;SDS011;109;19.806;-70.704;2023-12-04T00:32:03;18.37;;;3.60;;
249;SDS011;109;19.806;-70.704;2023-12-04T00:34:29;21.20;;;2.80;;
249;SDS011;109;19.806;-70.704;2023-12-04T00:36:56;11.93;;;3.00;;
249;SDS011;109;19.806;-70.704;2023-12-04T00:39:22;17.83;;;3.00;;
249;SDS011;109;19.806;-70.704;2023-12-04T00:41:49;20.57;;;2.70;;
249;SDS011;109;19.806;-70.704;2023-12-04T00:44:15;13.23;;;3.83;;
249;SDS011;109;19.806;-70.704;2023-12-04T00:46:42;16.67;;;5.50;;
249;SDS011;109;19.806;-70.704;2023-12-04T00:49:08;9.30;;;2.67;;
249;SDS011;109;19.806;-70.704;2023-12-04T00:51:38;12.50;;;2.60;;
249;SDS011;109;19.806;-70.704;2023-12-04T00:54:04;15.03;;;2.57;;
249;SDS011;109;19.806;-70.704;2023-12-04T00:56:31;24.53;;;4.00;;
249;SDS011;109;19.806;-70.704;2023-12-04T00:58:57;13.33;;;3.00;;
249;SDS011;109;19.806;-70.704;2023-12-04T01:01:24;9.33;;;2.10;;
249;SDS011;109;19.806;-70.704;2023-12-04T01:03:50;9.30;;;3.10;;
249;SDS011;109;19.806;-70.704;2023-12-04T01:06:23;15.30;;;3.23;;
249;SDS011;109;19.806;-70.704;2023-12-04T01:08:52;13.40;;;4.00;;
249;SDS011;109;19.806;-70.704;2023-12-04T01:11:20;14.90;;;4.07;;
249;SDS011;109;19.806;-70.704;2023-12-04T01:13:47;10.27;;;3.70;;
249;SDS011;109;19.806;-70.704;2023-12-04T01:16:16;10.27;;;4.30;;
249;SDS011;109;19.806;-70.704;2023-12-04T01:18:43;21.23;;;5.00;;
249;SDS011;109;19.806;-70.704;2023-12-04T01:21:09;17.73;;;4.30;;
249;SDS011;109;19.806;-70.704;2023-12-04T01:23:36;14.73;;;4.93;;
249;SDS011;109;19.806;-70.704;2023-12-04T01:26:03;14.73;;;4.83;;
249;SDS011;109;19.806;-70.704;2023-12-04T01:28:30;14.03;;;4.87;;
249;SDS011;109;19.806;-70.704;2023-12-04T01:30:57;13.33;;;4.30;;
249;SDS011;109;19.806;-70.704;2023-12-04T01:33:27;14.33;;;3.93;;
249;SDS011;109;19.806;-70.704;2023-12-04T01:35:53;13.03;;;4.13;;
249;SDS011;109;19.806;-70.704;2023-12-04T01:38:20;14.57;;;4.00;;
249;SDS011;109;19.806;-70.704;2023-12-04T01:40:46;14.03;;;3.77;;
249;SDS011;109;19.806;-70.704;2023-12-04T01:43:13;11.97;;;4.10;;
249;SDS011;109;19.806;-70.704;2023-12-04T01:45:40;10.87;;;3.50;;
249;SDS011;109;19.806;-70.704;2023-12-04T01:48:07;15.57;;;3.80;;
249;SDS011;109;19.806;-70.704;2023-12-04T01:50:36;11.13;;;3.77;;
249;SDS011;109;19.806;-70.704;2023-12-04T01:53:04;9.20;;;3.40;;
249;SDS011;109;19.806;-70.704;2023-12-04T01:55:34;10.97;;;3.30;;
249;SDS011;109;19.806;-70.704;2023-12-04T01:58:05;17.10;;;9.90;;
249;SDS011;109;19.806;-70.704;2023-12-04T02:00:33;10.83;;;3.60;;
249;SDS011;109;19.806;-70.704;2023-12-04T04:40:33;11.60;;;3.90;;
249;SDS011;109;19.806;-70.704;2023-12-04T06:10:30;16.40;;;4.10;;
249;SDS011;109;19.806;-70.704;2023-12-04T06:13:16;12.97;;;4.03;;
249;SDS011;109;19.806;-70.704;2023-12-04T09:15:05;7.97;;;3.43;;
249;SDS011;109;19.806;-70.704;2023-12-04T10:35:11;6.40;;;2.97;;
249;SDS011;109;19.806;-70.704;2023-12-04T10:37:44;27.63;;;4.23;;
249;SDS011;109;19.806;-70.704;2023-12-04T10:45:00;15.40;;;3.40;;
249;SDS011;109;19.806;-70.704;2023-12-04T10:47:30;13.27;;;3.90;;
249;SDS011;109;19.806;-70.704;2023-12-04T10:49:57;13.80;;;5.00;;
249;SDS011;109;19.806;-70.704;2023-12-04T10:52:24;14.37;;;4.70;;
249;SDS011;109;19.806;-70.704;2023-12-04T10:54:50;12.17;;;4.60;;
249;SDS011;109;19.806;-70.704;2023-12-04T10:57:26;12.33;;;4.33;;
249;SDS011;109;19.806;-70.704;2023-12-04T10:59:56;12.63;;;4.77;;
249;SDS011;109;19.806;-70.704;2023-12-04T11:02:26;12.90;;;5.37;;
249;SDS011;109;19.806;-70.704;2023-12-04T11:04:55;12.00;;;4.80;;
249;SDS011;109;19.806;-70.704;2023-12-04T11:07:28;11.90;;;4.90;;
249;SDS011;109;19.806;-70.704;2023-12-04T11:09:56;10.67;;;4.50;;
249;SDS011;109;19.806;-70.704;2023-12-04T11:12:25;13.77;;;4.77;;
249;SDS011;109;19.806;-70.704;2023-12-04T11:14:59;20.97;;;4.27;;
249;SDS011;109;19.806;-70.704;2023-12-04T11:17:28;10.57;;;4.10;;
249;SDS011;109;19.806;-70.704;2023-12-04T11:20:13;10.97;;;4.60;;
249;SDS011;109;19.806;-70.704;2023-12-04T11:22:47;12.27;;;4.40;;
249;SDS011;109;19.806;-70.704;2023-12-04T11:25:15;9.20;;;4.67;;
249;SDS011;109;19.806;-70.704;2023-12-04T11:27:42;10.73;;;4.80;;
249;SDS011;109;19.806;-70.704;2023-12-04T11:30:10;11.07;;;4.50;;
249;SDS011;109;19.806;-70.704;2023-12-04T11:32:45;14.53;;;5.70;;
249;SDS011;109;19.806;-70.704;2023-12-04T11:35:17;19.27;;;5.40;;
249;SDS011;109;19.806;-70.704;2023-12-04T11:37:44;16.40;;;5.90;;
249;SDS011;109;19.806;-70.704;2023-12-04T11:40:16;16.53;;;5.37;;
249;SDS011;109;19.806;-70.704;2023-12-04T11:42:43;13.07;;;5.87;;
249;SDS011;109;19.806;-70.704;2023-12-04T11:45:11;13.60;;;6.37;;
249;SDS011;109;19.806;-70.704;2023-12-04T11:47:56;17.33;;;6.27;;
249;SDS011;109;19.806;-70.704;2023-12-04T11:50:24;11.23;;;5.60;;
249;SDS011;109;19.806;-70.704;2023-12-04T11:52:51;15.33;;;6.20;;
249;SDS011;109;19.806;-70.704;2023-12-04T11:55:21;16.37;;;5.67;;
249;SDS011;109;19.806;-70.704;2023-12-04T11:57:50;16.23;;;5.03;;
249;SDS011;109;19.806;-70.704;2023-12-04T12:03:07;11.67;;;5.40;;
249;SDS011;109;19.806;-70.704;2023-12-04T12:05:35;18.63;;;5.70;;
249;SDS011;109;19.806;-70.704;2023-12-04T12:08:04;10.83;;;5.10;;
249;SDS011;109;19.806;-70.704;2023-12-04T12:10:32;12.97;;;5.20;;
249;SDS011;109;19.806;-70.704;2023-12-04T12:12:59;9.73;;;4.70;;
249;SDS011;109;19.806;-70.704;2023-12-04T12:15:27;17.53;;;5.40;;
249;SDS011;109;19.806;-70.704;2023-12-04T12:17:54;18.70;;;5.90;;
249;SDS011;109;19.806;-70.704;2023-12-04T12:20:21;9.20;;;5.07;;
249;SDS011;109;19.806;-70.704;2023-12-04T12:22:48;13.57;;;5.60;;
249;SDS011;109;19.806;-70.704;2023-12-04T12:25:15;10.23;;;6.00;;
249;SDS011;109;19.806;-70.704;2023-12-04T12:27:43;12.13;;;5.20;;
249;SDS011;109;19.806;-70.704;2023-12-04T12:30:11;13.53;;;6.20;;
249;SDS011;109;19.806;-70.704;2023-12-04T12:32:38;8.03;;;4.53;;
249;SDS011;109;19.806;-70.704;2023-12-04T12:35:05;12.87;;;5.40;;
249;SDS011;109;19.806;-70.704;2023-12-04T12:37:35;11.00;;;5.60;;
249;SDS011;109;19.806;-70.704;2023-12-04T12:40:05;15.00;;;6.10;;
249;SDS011;109;19.806;-70.704;2023-12-04T12:42:35;18.80;;;7.27;;
249;SDS011;109;19.806;-70.704;2023-12-04T12:45:04;15.30;;;6.57;;
249;SDS011;109;19.806;-70.704;2023-12-04T12:47:31;13.20;;;5.90;;
249;SDS011;109;19.806;-70.704;2023-12-04T12:49:57;13.83;;;5.47;;
249;SDS011;109;19.806;-70.704;2023-12-04T12:52:28;15.17;;;4.77;;
249;SDS011;109;19.806;-70.704;2023-12-04T12:54:55;15.20;;;4.20;;
249;SDS011;109;19.806;-70.704;2023-12-04T12:57:21;8.13;;;3.63;;
249;SDS011;109;19.806;-70.704;2023-12-04T12:59:48;14.13;;;3.90;;
249;SDS011;109;19.806;-70.704;2023-12-04T13:02:15;8.80;;;3.10;;
249;SDS011;109;19.806;-70.704;2023-12-04T13:04:43;7.93;;;3.10;;
249;SDS011;109;19.806;-70.704;2023-12-04T13:07:10;28.93;;;4.23;;
249;SDS011;109;19.806;-70.704;2023-12-04T13:09:37;6.40;;;2.87;;
249;SDS011;109;19.806;-70.704;2023-12-04T13:12:04;18.00;;;4.90;;
249;SDS011;109;19.806;-70.704;2023-12-04T13:14:31;7.83;;;2.70;;
249;SDS011;109;19.806;-70.704;2023-12-04T13:17:00;12.43;;;3.53;;
249;SDS011;109;19.806;-70.704;2023-12-04T13:19:27;11.83;;;3.23;;
249;SDS011;109;19.806;-70.704;2023-12-04T13:21:53;15.07;;;6.60;;
249;SDS011;109;19.806;-70.704;2023-12-04T13:24:20;14.27;;;4.80;;
249;SDS011;109;19.806;-70.704;2023-12-04T13:26:47;11.50;;;6.87;;
249;SDS011;109;19.806;-70.704;2023-12-04T13:29:13;11.27;;;7.13;;
249;SDS011;109;19.806;-70.704;2023-12-04T13:31:47;19.77;;;11.17;;
249;SDS011;109;19.806;-70.704;2023-12-04T13:34:16;12.63;;;7.33;;
249;SDS011;109;19.806;-70.704;2023-12-04T13:36:42;9.30;;;4.80;;
249;SDS011;109;19.806;-70.704;2023-12-04T13:39:09;10.43;;;5.17;;
249;SDS011;109;19.806;-70.704;2023-12-04T13:41:45;6.90;;;4.20;;
249;SDS011;109;19.806;-70.704;2023-12-04T13:44:31;79.83;;;10.93;;
249;SDS011;109;19.806;-70.704;2023-12-04T13:46:59;44.67;;;7.93;;
249;SDS011;109;19.806;-70.704;2023-12-04T13:49:25;12.13;;;5.57;;
249;SDS011;109;19.806;-70.704;2023-12-04T13:51:51;14.00;;;6.80;;
249;SDS011;109;19.806;-70.704;2023-12-04T13:54:19;9.60;;;6.20;;
249;SDS011;109;19.806;-70.704;2023-12-04T13:56:48;9.40;;;4.70;;
249;SDS011;109;19.806;-70.704;2023-12-04T13:59:22;9.40;;;5.57;;
249;SDS011;109;19.806;-70.704;2023-12-04T14:01:49;15.70;;;5.93;;
249;SDS011;109;19.806;-70.704;2023-12-04T14:04:17;8.90;;;4.37;;
249;SDS011;109;19.806;-70.704;2023-12-04T14:06:44;15.80;;;4.17;;
249;SDS011;109;19.806;-70.704;2023-12-04T14:09:11;11.63;;;4.80;;
249;SDS011;109;19.806;-70.704;2023-12-04T14:11:43;7.40;;;3.23;;
249;SDS011;109;19.806;-70.704;2023-12-04T14:14:11;11.53;;;3.20;;
249;SDS011;109;19.806;-70.704;2023-12-04T14:16:41;12.53;;;3.70;;
249;SDS011;109;19.806;-70.704;2023-12-04T14:19:07;8.03;;;2.83;;
249;SDS011;109;19.806;-70.704;2023-12-04T14:21:34;9.20;;;2.50;;
249;SDS011;109;19.806;-70.704;2023-12-04T14:24:00;7.30;;;3.00;;
249;SDS011;109;19.806;-70.704;2023-12-04T14:26:27;7.10;;;3.07;;
249;SDS011;109;19.806;-70.704;2023-12-04T14:28:53;9.97;;;2.90;;
249;SDS011;109;19.806;-70.704;2023-12-04T14:31:21;9.37;;;3.43;;
249;SDS011;109;19.806;-70.704;2023-12-04T14:33:48;10.07;;;2.80;;
249;SDS011;109;19.806;-70.704;2023-12-04T14:36:15;10.70;;;2.83;;
249;SDS011;109;19.806;-70.704;2023-12-04T14:38:42;9.30;;;3.63;;
249;SDS011;109;19.806;-70.704;2023-12-04T14:41:08;9.77;;;2.67;;
249;SDS011;109;19.806;-70.704;2023-12-04T14:43:35;12.67;;;2.30;;
249;SDS011;109;19.806;-70.704;2023-12-04T14:46:03;9.87;;;2.80;;
249;SDS011;109;19.806;-70.704;2023-12-04T14:48:30;10.03;;;3.90;;
249;SDS011;109;19.806;-70.704;2023-12-04T14:50:57;5.50;;;2.30;;
249;SDS011;109;19.806;-70.704;2023-12-04T14:53:23;10.63;;;2.60;;
249;SDS011;109;19.806;-70.704;2023-12-04T14:56:12;9.80;;;2.60;;
249;SDS011;109;19.806;-70.704;2023-12-04T14:58:57;10.97;;;2.37;;
249;SDS011;109;19.806;-70.704;2023-12-04T15:01:42;8.83;;;2.60;;
249;SDS011;109;19.806;-70.704;2023-12-04T15:04:35;5.70;;;2.00;;
249;SDS011;109;19.806;-70.704;2023-12-04T15:07:20;9.23;;;3.20;;
249;SDS011;109;19.806;-70.704;2023-12-04T15:09:46;17.03;;;12.47;;
249;SDS011;109;19.806;-70.704;2023-12-04T15:12:53;11.67;;;4.80;;
249;SDS011;109;19.806;-70.704;2023-12-04T15:15:30;7.87;;;2.97;;
249;SDS011;109;19.806;-70.704;2023-12-04T15:17:56;10.10;;;5.00;;
249;SDS011;109;19.806;-70.704;2023-12-04T15:20:43;13.90;;;9.23;;
249;SDS011;109;19.806;-70.704;2023-12-04T15:23:10;11.30;;;6.00;;
249;SDS011;109;19.806;-70.704;2023-12-04T15:25:37;9.60;;;2.47;;
249;SDS011;109;19.806;-70.704;2023-12-04T15:28:04;11.83;;;2.20;;
249;SDS011;109;19.806;-70.704;2023-12-04T15:30:36;10.67;;;2.50;;
249;SDS011;109;19.806;-70.704;2023-12-04T15:33:05;9.87;;;2.63;;
249;SDS011;109;19.806;-70.704;2023-12-04T15:35:31;9.43;;;2.50;;
249;SDS011;109;19.806;-70.704;2023-12-04T15:37:58;10.43;;;2.50;;
249;SDS011;109;19.806;-70.704;2023-12-04T15:40:24;9.50;;;2.57;;
249;SDS011;109;19.806;-70.704;2023-12-04T15:42:51;8.73;;;2.70;;
249;SDS011;109;19.806;-70.704;2023-12-04T15:45:17;7.40;;;2.40;;
249;SDS011;109;19.806;-70.704;2023-12-04T15:47:43;12.27;;;2.30;;
249;SDS011;109;19.806;-70.704;2023-12-04T15:50:10;7.93;;;2.30;;
249;SDS011;109;19.806;-70.704;2023-12-04T15:52:37;11.67;;;2.03;;
249;SDS011;109;19.806;-70.704;2023-12-04T15:55:05;7.40;;;2.57;;
249;SDS011;109;19.806;-70.704;2023-12-04T15:57:35;13.70;;;3.00;;
249;SDS011;109;19.806;-70.704;2023-12-04T16:00:02;22.67;;;2.80;;
249;SDS011;109;19.806;-70.704;2023-12-04T16:02:38;6.20;;;2.40;;
249;SDS011;109;19.806;-70.704;2023-12-04T16:05:08;20.10;;;3.07;;
249;SDS011;109;19.806;-70.704;2023-12-04T16:07:37;15.73;;;3.80;;
249;SDS011;109;19.806;-70.704;2023-12-04T16:10:04;13.33;;;2.87;;
249;SDS011;109;19.806;-70.704;2023-12-04T16:12:35;11.03;;;2.77;;
249;SDS011;109;19.806;-70.704;2023-12-04T16:15:06;16.10;;;3.10;;
249;SDS011;109;19.806;-70.704;2023-12-04T16:17:34;14.57;;;2.93;;
249;SDS011;109;19.806;-70.704;2023-12-04T16:20:02;21.93;;;2.90;;
249;SDS011;109;19.806;-70.704;2023-12-04T16:22:45;10.40;;;3.10;;
249;SDS011;109;19.806;-70.704;2023-12-04T16:25:11;13.50;;;3.20;;
249;SDS011;109;19.806;-70.704;2023-12-04T16:27:43;12.73;;;2.97;;
249;SDS011;109;19.806;-70.704;2023-12-04T16:30:13;25.80;;;4.00;;
249;SDS011;109;19.806;-70.704;2023-12-04T16:32:40;18.80;;;3.63;;
249;SDS011;109;19.806;-70.704;2023-12-04T16:35:07;17.43;;;3.80;;
249;SDS011;109;19.806;-70.704;2023-12-04T16:37:34;13.97;;;3.80;;
249;SDS011;109;19.806;-70.704;2023-12-04T16:40:03;13.13;;;3.00;;
249;SDS011;109;19.806;-70.704;2023-12-04T16:42:30;18.00;;;3.97;;
249;SDS011;109;19.806;-70.704;2023-12-04T16:44:57;9.50;;;2.83;;
249;SDS011;109;19.806;-70.704;2023-12-04T16:47:24;19.03;;;3.07;;
249;SDS011;109;19.806;-70.704;2023-12-04T16:49:51;25.07;;;3.63;;
249;SDS011;109;19.806;-70.704;2023-12-04T16:52:18;13.90;;;3.13;;
249;SDS011;109;19.806;-70.704;2023-12-04T16:54:45;22.90;;;3.50;;
249;SDS011;109;19.806;-70.704;2023-12-04T16:57:17;15.43;;;3.40;;
249;SDS011;109;19.806;-70.704;2023-12-04T16:59:43;9.10;;;2.90;;
249;SDS011;109;19.806;-70.704;2023-12-04T17:02:10;9.50;;;3.10;;
249;SDS011;109;19.806;-70.704;2023-12-04T17:04:36;17.20;;;3.27;;
249;SDS011;109;19.806;-70.704;2023-12-04T17:07:03;11.90;;;3.67;;
249;SDS011;109;19.806;-70.704;2023-12-04T17:09:30;10.83;;;3.30;;
249;SDS011;109;19.806;-70.704;2023-12-04T17:11:57;19.10;;;3.33;;
249;SDS011;109;19.806;-70.704;2023-12-04T17:14:23;20.60;;;3.53;;
249;SDS011;109;19.806;-70.704;2023-12-04T17:16:50;22.90;;;3.73;;
249;SDS011;109;19.806;-70.704;2023-12-04T17:19:16;16.63;;;3.10;;
249;SDS011;109;19.806;-70.704;2023-12-04T17:21:43;23.87;;;4.10;;
249;SDS011;109;19.806;-70.704;2023-12-04T17:24:09;20.77;;;3.63;;
249;SDS011;109;19.806;-70.704;2023-12-04T17:26:36;21.57;;;4.50;;
249;SDS011;109;19.806;-70.704;2023-12-04T17:29:02;12.47;;;3.50;;
249;SDS011;109;19.806;-70.704;2023-12-04T17:31:29;23.57;;;3.97;;
249;SDS011;109;19.806;-70.704;2023-12-04T17:33:55;20.00;;;4.20;;
249;SDS011;109;19.806;-70.704;2023-12-04T17:36:22;16.63;;;3.33;;
249;SDS011;109;19.806;-70.704;2023-12-04T17:38:48;33.90;;;3.80;;
249;SDS011;109;19.806;-70.704;2023-12-04T17:41:14;18.10;;;3.80;;
249;SDS011;109;19.806;-70.704;2023-12-04T17:43:42;26.70;;;3.77;;
249;SDS011;109;19.806;-70.704;2023-12-04T17:46:08;20.40;;;4.60;;
249;SDS011;109;19.806;-70.704;2023-12-04T17:48:35;22.37;;;3.40;;
249;SDS011;109;19.806;-70.704;2023-12-04T17:51:02;8.63;;;2.90;;
249;SDS011;109;19.806;-70.704;2023-12-04T17:53:29;15.30;;;3.43;;
249;SDS011;109;19.806;-70.704;2023-12-04T17:55:56;21.17;;;4.30;;
249;SDS011;109;19.806;-70.704;2023-12-04T17:58:22;16.13;;;3.77;;
249;SDS011;109;19.806;-70.704;2023-12-04T18:00:48;12.93;;;3.67;;
249;SDS011;109;19.806;-70.704;2023-12-04T18:03:15;14.43;;;3.43;;
249;SDS011;109;19.806;-70.704;2023-12-04T18:05:42;19.20;;;3.70;;
249;SDS011;109;19.806;-70.704;2023-12-04T18:08:08;23.93;;;4.50;;
249;SDS011;109;19.806;-70.704;2023-12-04T18:10:37;29.23;;;3.87;;
249;SDS011;109;19.806;-70.704;2023-12-04T18:13:04;26.67;;;3.80;;
249;SDS011;109;19.806;-70.704;2023-12-04T18:15:31;20.53;;;3.37;;
249;SDS011;109;19.806;-70.704;2023-12-04T18:17:57;19.30;;;3.97;;
249;SDS011;109;19.806;-70.704;2023-12-04T18:20:24;13.13;;;3.40;;
249;SDS011;109;19.806;-70.704;2023-12-04T18:22:51;21.47;;;4.53;;
249;SDS011;109;19.806;-70.704;2023-12-04T18:25:17;22.43;;;3.93;;
249;SDS011;109;19.806;-70.704;2023-12-04T18:27:44;25.47;;;4.90;;
249;SDS011;109;19.806;-70.704;2023-12-04T18:30:11;14.20;;;3.50;;
249;SDS011;109;19.806;-70.704;2023-12-04T18:32:40;20.37;;;3.97;;
249;SDS011;109;19.806;-70.704;2023-12-04T18:35:07;17.30;;;3.60;;
249;SDS011;109;19.806;-70.704;2023-12-04T18:37:42;19.63;;;3.70;;
249;SDS011;109;19.806;-70.704;2023-12-04T18:40:15;22.63;;;3.30;;
249;SDS011;109;19.806;-70.704;2023-12-04T18:42:43;16.20;;;3.30;;
249;SDS011;109;19.806;-70.704;2023-12-04T18:45:10;21.37;;;3.80;;
249;SDS011;109;19.806;-70.704;2023-12-04T18:47:37;29.53;;;4.10;;
249;SDS011;109;19.806;-70.704;2023-12-04T18:50:09;20.57;;;4.23;;
249;SDS011;109;19.806;-70.704;2023-12-04T18:52:36;18.87;;;3.60;;
249;SDS011;109;19.806;-70.704;2023-12-04T18:55:03;26.73;;;4.27;;
249;SDS011;109;19.806;-70.704;2023-12-04T18:57:30;11.90;;;3.47;;
249;SDS011;109;19.806;-70.704;2023-12-04T18:59:59;14.87;;;3.90;;
249;SDS011;109;19.806;-70.704;2023-12-04T19:02:25;18.73;;;4.27;;
249;SDS011;109;19.806;-70.704;2023-12-04T19:04:52;22.30;;;4.10;;
249;SDS011;109;19.806;-70.704;2023-12-04T19:07:18;13.10;;;4.10;;
249;SDS011;109;19.806;-70.704;2023-12-04T19:09:45;16.43;;;4.30;;
249;SDS011;109;19.806;-70.704;2023-12-04T19:12:12;14.83;;;3.33;;
249;SDS011;109;19.806;-70.704;2023-12-04T19:14:39;36.20;;;4.67;;
249;SDS011;109;19.806;-70.704;2023-12-04T19:17:05;14.43;;;3.60;;
249;SDS011;109;19.806;-70.704;2023-12-04T19:19:32;31.50;;;4.10;;
249;SDS011;109;19.806;-70.704;2023-12-04T19:21:59;16.70;;;3.60;;
249;SDS011;109;19.806;-70.704;2023-12-04T19:24:26;18.97;;;3.97;;
249;SDS011;109;19.806;-70.704;2023-12-04T19:26:52;26.50;;;4.90;;
249;SDS011;109;19.806;-70.704;2023-12-04T19:29:19;26.87;;;4.30;;
249;SDS011;109;19.806;-70.704;2023-12-04T19:31:45;15.60;;;4.27;;
249;SDS011;109;19.806;-70.704;2023-12-04T19:34:11;18.63;;;4.07;;
249;SDS011;109;19.806;-70.704;2023-12-04T19:36:40;21.27;;;3.90;;
249;SDS011;109;19.806;-70.704;2023-12-04T19:39:07;19.10;;;3.90;;
249;SDS011;109;19.806;-70.704;2023-12-04T19:41:33;20.00;;;3.60;;
249;SDS011;109;19.806;-70.704;2023-12-04T19:44:00;28.23;;;4.30;;
249;SDS011;109;19.806;-70.704;2023-12-04T19:46:26;23.47;;;4.07;;
249;SDS011;109;19.806;-70.704;2023-12-04T19:48:53;25.10;;;5.37;;
249;SDS011;109;19.806;-70.704;2023-12-04T19:51:19;18.60;;;3.93;;
249;SDS011;109;19.806;-70.704;2023-12-04T19:53:46;27.87;;;5.33;;
249;SDS011;109;19.806;-70.704;2023-12-04T19:56:12;22.30;;;4.80;;
249;SDS011;109;19.806;-70.704;2023-12-04T19:58:39;31.63;;;5.83;;
249;SDS011;109;19.806;-70.704;2023-12-04T20:01:05;19.77;;;4.03;;
249;SDS011;109;19.806;-70.704;2023-12-04T20:03:33;12.30;;;3.80;;
249;SDS011;109;19.806;-70.704;2023-12-04T20:06:00;16.30;;;4.00;;
249;SDS011;109;19.806;-70.704;2023-12-04T20:08:26;26.43;;;5.27;;
249;SDS011;109;19.806;-70.704;2023-12-04T20:10:53;16.97;;;4.20;;
249;SDS011;109;19.806;-70.704;2023-12-04T20:13:20;13.33;;;4.03;;
249;SDS011;109;19.806;-70.704;2023-12-04T20:15:46;21.90;;;4.00;;
249;SDS011;109;19.806;-70.704;2023-12-04T20:18:13;19.40;;;6.70;;
249;SDS011;109;19.806;-70.704;2023-12-04T20:20:39;14.83;;;5.53;;
249;SDS011;109;19.806;-70.704;2023-12-04T20:23:06;13.03;;;4.13;;
249;SDS011;109;19.806;-70.704;2023-12-04T20:25:34;24.93;;;5.00;;
249;SDS011;109;19.806;-70.704;2023-12-04T20:28:00;13.83;;;4.53;;
249;SDS011;109;19.806;-70.704;2023-12-04T20:30:28;29.63;;;5.17;;
249;SDS011;109;19.806;-70.704;2023-12-04T20:32:55;30.73;;;5.43;;
249;SDS011;109;19.806;-70.704;2023-12-04T20:35:21;24.50;;;3.90;;
249;SDS011;109;19.806;-70.704;2023-12-04T20:37:48;14.10;;;4.30;;
249;SDS011;109;19.806;-70.704;2023-12-04T20:40:15;16.33;;;3.97;;
249;SDS011;109;19.806;-70.704;2023-12-04T20:42:41;20.73;;;4.30;;
249;SDS011;109;19.806;-70.704;2023-12-04T20:45:08;18.53;;;4.90;;
249;SDS011;109;19.806;-70.704;2023-12-04T20:47:36;20.63;;;4.20;;
249;SDS011;109;19.806;-70.704;2023-12-04T20:50:03;23.33;;;5.60;;
249;SDS011;109;19.806;-70.704;2023-12-04T20:52:30;20.43;;;4.87;;
249;SDS011;109;19.806;-70.704;2023-12-04T20:54:56;25.97;;;4.67;;
249;SDS011;109;19.806;-70.704;2023-12-04T20:57:23;35.33;;;5.60;;
249;SDS011;109;19.806;-70.704;2023-12-04T20:59:50;20.97;;;4.47;;
249;SDS011;109;19.806;-70.704;2023-12-04T21:02:16;20.97;;;3.90;;
249;SDS011;109;19.806;-70.704;2023-12-04T21:04:43;26.63;;;6.30;;
249;SDS011;109;19.806;-70.704;2023-12-04T21:07:10;13.40;;;3.60;;
249;SDS011;109;19.806;-70.704;2023-12-04T21:09:39;24.67;;;5.30;;
249;SDS011;109;19.806;-70.704;2023-12-04T21:12:07;27.93;;;5.53;;
249;SDS011;109;19.806;-70.704;2023-12-04T21:14:34;21.53;;;4.90;;
249;SDS011;109;19.806;-70.704;2023-12-04T21:17:00;21.47;;;4.90;;
249;SDS011;109;19.806;-70.704;2023-12-04T21:19:27;24.00;;;5.10;;
249;SDS011;109;19.806;-70.704;2023-12-04T21:21:54;20.37;;;5.20;;
249;SDS011;109;19.806;-70.704;2023-12-04T21:24:20;22.20;;;4.20;;
249;SDS011;109;19.806;-70.704;2023-12-04T21:26:47;18.63;;;4.40;;
249;SDS011;109;19.806;-70.704;2023-12-04T21:29:13;19.20;;;4.87;;
249;SDS011;109;19.806;-70.704;2023-12-04T21:31:39;31.03;;;4.93;;
249;SDS011;109;19.806;-70.704;2023-12-04T21:34:06;17.30;;;5.70;;
249;SDS011;109;19.806;-70.704;2023-12-04T21:36:34;28.43;;;5.00;;
249;SDS011;109;19.806;-70.704;2023-12-04T21:39:00;26.43;;;5.80;;
249;SDS011;109;19.806;-70.704;2023-12-04T21:41:26;19.67;;;4.23;;
249;SDS011;109;19.806;-70.704;2023-12-04T21:43:53;18.17;;;5.00;;
249;SDS011;109;19.806;-70.704;2023-12-04T21:46:19;18.70;;;4.23;;
249;SDS011;109;19.806;-70.704;2023-12-04T21:48:46;25.47;;;5.53;;
249;SDS011;109;19.806;-70.704;2023-12-04T21:51:13;27.90;;;4.40;;
249;SDS011;109;19.806;-70.704;2023-12-04T21:53:39;23.13;;;4.60;;
249;SDS011;109;19.806;-70.704;2023-12-04T21:56:06;22.70;;;4.50;;
249;SDS011;109;19.806;-70.704;2023-12-04T21:58:32;21.70;;;5.03;;
249;SDS011;109;19.806;-70.704;2023-12-04T22:00:59;18.27;;;4.30;;
249;SDS011;109;19.806;-70.704;2023-12-04T22:03:26;22.70;;;4.63;;
249;SDS011;109;19.806;-70.704;2023-12-04T22:05:53;13.07;;;4.50;;
249;SDS011;109;19.806;-70.704;2023-12-04T22:08:19;20.43;;;5.00;;
249;SDS011;109;19.806;-70.704;2023-12-04T22:10:45;30.97;;;6.37;;
249;SDS011;109;19.806;-70.704;2023-12-04T22:13:12;23.93;;;4.73;;
249;SDS011;109;19.806;-70.704;2023-12-04T22:15:38;29.17;;;5.60;;
249;SDS011;109;19.806;-70.704;2023-12-04T22:18:05;20.30;;;4.50;;
249;SDS011;109;19.806;-70.704;2023-12-04T22:20:32;20.70;;;5.00;;
249;SDS011;109;19.806;-70.704;2023-12-04T22:22:58;17.70;;;5.60;;
249;SDS011;109;19.806;-70.704;2023-12-04T22:25:25;24.40;;;4.90;;
249;SDS011;109;19.806;-70.704;2023-12-04T22:27:52;29.00;;;5.00;;
249;SDS011;109;19.806;-70.704;2023-12-04T22:30:19;30.33;;;5.60;;
249;SDS011;109;19.806;-70.704;2023-12-04T22:32:45;24.47;;;5.50;;
249;SDS011;109;19.806;-70.704;2023-12-04T22:35:12;25.23;;;5.00;;
249;SDS011;109;19.806;-70.704;2023-12-04T22:37:38;28.80;;;6.53;;
249;SDS011;109;19.806;-70.704;2023-12-04T22:40:05;24.60;;;5.70;;
249;SDS011;109;19.806;-70.704;2023-12-04T22:42:32;19.50;;;4.80;;
249;SDS011;109;19.806;-70.704;2023-12-04T22:44:58;16.70;;;4.80;;
249;SDS011;109;19.806;-70.704;2023-12-04T22:47:26;23.70;;;5.23;;
249;SDS011;109;19.806;-70.704;2023-12-04T22:49:52;18.57;;;4.90;;
249;SDS011;109;19.806;-70.704;2023-12-04T22:52:19;20.00;;;5.60;;
249;SDS011;109;19.806;-70.704;2023-12-04T22:54:46;25.93;;;6.47;;
249;SDS011;109;19.806;-70.704;2023-12-04T22:57:15;23.57;;;5.10;;
249;SDS011;109;19.806;-70.704;2023-12-04T22:59:41;26.90;;;5.70;;
249;SDS011;109;19.806;-70.704;2023-12-04T23:02:08;20.47;;;5.77;;
249;SDS011;109;19.806;-70.704;2023-12-04T23:04:34;31.60;;;6.43;;
249;SDS011;109;19.806;-70.704;2023-12-04T23:07:01;35.60;;;5.87;;
249;SDS011;109;19.806;-70.704;2023-12-04T23:09:27;22.47;;;6.60;;
249;SDS011;109;19.806;-70.704;2023-12-04T23:11:54;22.03;;;6.37;;
249;SDS011;109;19.806;-70.704;2023-12-04T23:14:21;28.33;;;6.73;;
249;SDS011;109;19.806;-70.704;2023-12-04T23:16:48;32.27;;;7.33;;
249;SDS011;109;19.806;-70.704;2023-12-04T23:19:14;23.17;;;6.40;;
249;SDS011;109;19.806;-70.704;2023-12-04T23:21:41;26.07;;;7.30;;
249;SDS011;109;19.806;-70.704;2023-12-04T23:24:07;35.10;;;6.80;;
249;SDS011;109;19.806;-70.704;2023-12-04T23:26:34;37.57;;;6.70;;
249;SDS011;109;19.806;-70.704;2023-12-04T23:29:01;23.17;;;6.70;;
249;SDS011;109;19.806;-70.704;2023-12-04T23:31:30;16.53;;;7.30;;
249;SDS011;109;19.806;-70.704;2023-12-04T23:33:57;28.03;;;14.20;;
249;SDS011;109;19.806;-70.704;2023-12-04T23:36:24;22.87;;;10.37;;